sensor_id;sensor_type;location;lat;lon;timestamp;pressure;altitude;pressure_sealevel;temperature;humidity
30682;BME280;17439;48.092;11.842;2023-04-19T00:02:04;95829.81;;;11.38;68.22
30682;BME280;17439;48.092;11.842;2023-04-19T00:04:31;95831.41;;;11.39;67.91
30682;BME280;17439;48.092;11.842;2023-04-19T00:06:57;95827.59;;;11.40;67.63
30682;BME280;17439;48.092;11.842;2023-04-19T00:09:24;95825.19;;;11.38;67.71
30682;BME280;17439;48.092;11.842;2023-04-19T00:11:51;95825.19;;;11.38;67.59
30682;BME280;17439;48.092;11.842;2023-04-19T00:14:18;95821.66;;;11.38;67.56
30682;BME280;17439;48.092;11.842;2023-04-19T00:16:45;95817.66;;;11.35;67.54
30682;BME280;17439;48.092;11.842;2023-04-19T00:19:12;95813.03;;;11.36;67.27
30682;BME280;17439;48.092;11.842;2023-04-19T00:21:38;95819.09;;;11.33;67.59
30682;BME280;17439;48.092;11.842;2023-04-19T00:24:05;95812.03;;;11.32;67.45
30682;BME280;17439;48.092;11.842;2023-04-19T00:26:31;95813.13;;;11.31;67.18
30682;BME280;17439;48.092;11.842;2023-04-19T00:28:58;95812.34;;;11.30;67.48
30682;BME280;17439;48.092;11.842;2023-04-19T00:31:25;95812.94;;;11.27;67.78
30682;BME280;17439;48.092;11.842;2023-04-19T00:33:52;95810.84;;;11.24;67.83
30682;BME280;17439;48.092;11.842;2023-04-19T00:36:18;95804.63;;;11.23;68.06
30682;BME280;17439;48.092;11.842;2023-04-19T00:38:45;95798.06;;;11.24;67.86
30682;BME280;17439;48.092;11.842;2023-04-19T00:41:12;95801.59;;;11.25;67.59
30682;BME280;17439;48.092;11.842;2023-04-19T00:43:39;95799.19;;;11.23;67.78
30682;BME280;17439;48.092;11.842;2023-04-19T00:46:05;95800.28;;;11.22;67.88
30682;BME280;17439;48.092;11.842;2023-04-19T00:48:33;95794.88;;;11.22;67.75
30682;BME280;17439;48.092;11.842;2023-04-19T00:51:01;95792.16;;;11.22;67.58
30682;BME280;17439;48.092;11.842;2023-04-19T00:53:27;95791.66;;;11.20;67.60
30682;BME280;17439;48.092;11.842;2023-04-19T00:55:56;95786.84;;;11.17;67.84
30682;BME280;17439;48.092;11.842;2023-04-19T00:58:25;95790.06;;;11.19;67.73
30682;BME280;17439;48.092;11.842;2023-04-19T01:00:52;95787.03;;;11.21;67.42
30682;BME280;17439;48.092;11.842;2023-04-19T01:05:59;95782.22;;;11.18;67.51
30682;BME280;17439;48.092;11.842;2023-04-19T01:08:27;95782.81;;;11.15;67.66
30682;BME280;17439;48.092;11.842;2023-04-19T01:10:54;95780.13;;;11.15;67.66
30682;BME280;17439;48.092;11.842;2023-04-19T01:13:20;95785.53;;;11.15;67.67
30682;BME280;17439;48.092;11.842;2023-04-19T01:15:47;95785.84;;;11.13;67.81
30682;BME280;17439;48.092;11.842;2023-04-19T01:18:14;95785.34;;;11.11;68.15
30682;BME280;17439;48.092;11.842;2023-04-19T01:20:41;95780.22;;;11.10;68.27
30682;BME280;17439;48.092;11.842;2023-04-19T01:23:08;95776.72;;;11.09;68.34
30682;BME280;17439;48.092;11.842;2023-04-19T01:25:35;95778.63;;;11.08;68.36
30682;BME280;17439;48.092;11.842;2023-04-19T01:28:03;95770.00;;;11.06;68.71
30682;BME280;17439;48.092;11.842;2023-04-19T01:30:30;95769.19;;;11.06;68.80
30682;BME280;17439;48.092;11.842;2023-04-19T01:32:57;95770.78;;;11.07;68.94
30682;BME280;17439;48.092;11.842;2023-04-19T01:35:24;95762.66;;;11.07;69.04
30682;BME280;17439;48.092;11.842;2023-04-19T01:37:51;95763.47;;;11.07;69.27
30682;BME280;17439;48.092;11.842;2023-04-19T01:40:18;95759.84;;;11.12;68.95
30682;BME280;17439;48.092;11.842;2023-04-19T01:42:44;95754.91;;;11.14;68.61
30682;BME280;17439;48.092;11.842;2023-04-19T01:45:11;95756.50;;;11.15;68.49
30682;BME280;17439;48.092;11.842;2023-04-19T01:47:38;95748.06;;;11.17;68.20
30682;BME280;17439;48.092;11.842;2023-04-19T01:50:06;95754.91;;;11.14;68.50
30682;BME280;17439;48.092;11.842;2023-04-19T01:52:34;95753.28;;;11.13;68.75
30682;BME280;17439;48.092;11.842;2023-04-19T01:55:01;95748.38;;;11.15;68.72
30682;BME280;17439;48.092;11.842;2023-04-19T01:57:28;95743.25;;;11.14;68.86
30682;BME280;17439;48.092;11.842;2023-04-19T01:59:56;95740.53;;;11.14;68.96
30682;BME280;17439;48.092;11.842;2023-04-19T02:02:23;95742.13;;;11.15;68.94
30682;BME280;17439;48.092;11.842;2023-04-19T02:04:50;95741.03;;;11.16;69.07
30682;BME280;17439;48.092;11.842;2023-04-19T02:07:17;95741.81;;;11.16;69.04
30682;BME280;17439;48.092;11.842;2023-04-19T02:09:43;95737.53;;;11.15;69.08
30682;BME280;17439;48.092;11.842;2023-04-19T02:12:11;95732.88;;;11.16;69.16
30682;BME280;17439;48.092;11.842;2023-04-19T02:14:37;95737.53;;;11.15;69.30
30682;BME280;17439;48.092;11.842;2023-04-19T02:17:04;95733.19;;;11.14;69.43
30682;BME280;17439;48.092;11.842;2023-04-19T02:19:31;95725.84;;;11.15;69.68
30682;BME280;17439;48.092;11.842;2023-04-19T02:21:58;95727.63;;;11.19;69.65
30682;BME280;17439;48.092;11.842;2023-04-19T02:24:25;95724.94;;;11.19;69.47
30682;BME280;17439;48.092;11.842;2023-04-19T02:26:52;95722.22;;;11.19;69.46
30682;BME280;17439;48.092;11.842;2023-04-19T02:29:19;95723.81;;;11.20;69.49
30682;BME280;17439;48.092;11.842;2023-04-19T02:31:45;95717.91;;;11.18;69.47
30682;BME280;17439;48.092;11.842;2023-04-19T02:34:12;95718.72;;;11.19;69.46
30682;BME280;17439;48.092;11.842;2023-04-19T02:36:40;95717.91;;;11.18;69.51
30682;BME280;17439;48.092;11.842;2023-04-19T02:39:06;95710.88;;;11.17;69.62
30682;BME280;17439;48.092;11.842;2023-04-19T02:41:36;95714.69;;;11.16;69.80
30682;BME280;17439;48.092;11.842;2023-04-19T02:44:03;95716.78;;;11.19;69.71
30682;BME280;17439;48.092;11.842;2023-04-19T02:46:30;95710.88;;;11.17;69.73
30682;BME280;17439;48.092;11.842;2023-04-19T02:48:59;95711.66;;;11.18;69.42
30682;BME280;17439;48.092;11.842;2023-04-19T02:51:26;95707.06;;;11.18;69.60
30682;BME280;17439;48.092;11.842;2023-04-19T02:53:53;95711.34;;;11.19;69.58
30682;BME280;17439;48.092;11.842;2023-04-19T02:56:20;95702.72;;;11.17;69.47
30682;BME280;17439;48.092;11.842;2023-04-19T02:58:47;95701.94;;;11.17;69.47
30682;BME280;17439;48.092;11.842;2023-04-19T03:01:14;95699.53;;;11.15;69.55
30682;BME280;17439;48.092;11.842;2023-04-19T03:03:41;95699.53;;;11.15;69.72
30682;BME280;17439;48.092;11.842;2023-04-19T03:06:08;95694.09;;;11.15;69.66
30682;BME280;17439;48.092;11.842;2023-04-19T03:08:35;95697.91;;;11.14;69.36
30682;BME280;17439;48.092;11.842;2023-04-19T03:11:02;95694.41;;;11.14;69.42
30682;BME280;17439;48.092;11.842;2023-04-19T03:13:29;95698.53;;;11.11;69.44
30682;BME280;17439;48.092;11.842;2023-04-19T03:15:56;95694.22;;;11.10;69.47
30682;BME280;17439;48.092;11.842;2023-04-19T03:18:23;95689.09;;;11.08;69.41
30682;BME280;17439;48.092;11.842;2023-04-19T03:20:53;95689.41;;;11.07;69.45
30682;BME280;17439;48.092;11.842;2023-04-19T03:23:20;95683.47;;;11.05;69.69
30682;BME280;17439;48.092;11.842;2023-04-19T03:25:48;95690.53;;;11.06;69.59
30682;BME280;17439;48.092;11.842;2023-04-19T03:28:44;95677.56;;;11.03;69.79
30682;BME280;17439;48.092;11.842;2023-04-19T03:31:20;95678.66;;;11.02;69.72
30682;BME280;17439;48.092;11.842;2023-04-19T03:33:49;95680.59;;;11.01;69.84
30682;BME280;17439;48.092;11.842;2023-04-19T03:36:18;95681.38;;;11.02;69.78
30682;BME280;17439;48.092;11.842;2023-04-19T03:38:45;95675.78;;;10.98;69.79
30682;BME280;17439;48.092;11.842;2023-04-19T03:41:24;95676.88;;;10.97;69.43
30682;BME280;17439;48.092;11.842;2023-04-19T03:44:26;95667.94;;;10.97;69.88
30682;BME280;17439;48.092;11.842;2023-04-19T03:46:54;95670.19;;;10.95;69.94
30682;BME280;17439;48.092;11.842;2023-04-19T03:49:24;95667.47;;;10.95;69.94
30682;BME280;17439;48.092;11.842;2023-04-19T03:52:02;95668.56;;;10.94;70.21
30682;BME280;17439;48.092;11.842;2023-04-19T03:54:29;95666.94;;;10.93;70.17
30682;BME280;17439;48.092;11.842;2023-04-19T03:56:58;95671.59;;;10.92;70.46
30682;BME280;17439;48.092;11.842;2023-04-19T03:59:25;95677.00;;;10.92;70.60
30682;BME280;17439;48.092;11.842;2023-04-19T04:01:52;95667.75;;;10.93;70.59
30682;BME280;17439;48.092;11.842;2023-04-19T04:04:21;95665.53;;;10.95;70.69
30682;BME280;17439;48.092;11.842;2023-04-19T04:06:48;95666.34;;;10.96;70.75
30682;BME280;17439;48.092;11.842;2023-04-19T04:09:16;95666.03;;;10.97;70.62
30682;BME280;17439;48.092;11.842;2023-04-19T04:11:43;95666.53;;;10.99;70.77
30682;BME280;17439;48.092;11.842;2023-04-19T04:14:10;95668.13;;;11.00;70.75
30682;BME280;17439;48.092;11.842;2023-04-19T04:16:38;95670.53;;;11.02;70.67
30682;BME280;17439;48.092;11.842;2023-04-19T04:19:05;95674.84;;;11.03;70.76
30682;BME280;17439;48.092;11.842;2023-04-19T04:21:35;95678.53;;;11.07;70.46
30682;BME280;17439;48.092;11.842;2023-04-19T04:24:03;95674.69;;;10.99;70.08
30682;BME280;17439;48.092;11.842;2023-04-19T04:26:50;95675.81;;;11.07;70.20
30682;BME280;17439;48.092;11.842;2023-04-19T04:29:23;95677.94;;;11.10;70.13
30682;BME280;17439;48.092;11.842;2023-04-19T04:31:53;95677.13;;;11.10;70.23
30682;BME280;17439;48.092;11.842;2023-04-19T04:34:24;95670.91;;;11.09;70.37
30682;BME280;17439;48.092;11.842;2023-04-19T04:37:00;95678.22;;;11.08;70.12
30682;BME280;17439;48.092;11.842;2023-04-19T04:39:28;95678.53;;;11.07;70.29
30682;BME280;17439;48.092;11.842;2023-04-19T04:41:55;95676.97;;;11.06;70.51
30682;BME280;17439;48.092;11.842;2023-04-19T04:44:23;95673.41;;;11.05;70.35
30682;BME280;17439;48.092;11.842;2023-04-19T04:46:50;95673.84;;;10.99;69.88
30682;BME280;17439;48.092;11.842;2023-04-19T04:49:23;95670.72;;;11.05;70.16
30682;BME280;17439;48.092;11.842;2023-04-19T04:51:49;95671.22;;;11.07;70.21
30682;BME280;17439;48.092;11.842;2023-04-19T04:54:17;95673.94;;;11.07;70.14
30682;BME280;17439;48.092;11.842;2023-04-19T04:56:45;95672.81;;;11.08;70.14
30682;BME280;17439;48.092;11.842;2023-04-19T04:59:13;95673.13;;;11.07;70.17
30682;BME280;17439;48.092;11.842;2023-04-19T05:01:43;95671.72;;;11.10;70.23
30682;BME280;17439;48.092;11.842;2023-04-19T05:04:10;95667.38;;;11.08;70.18
30682;BME280;17439;48.092;11.842;2023-04-19T05:06:37;95664.34;;;11.10;70.23
30682;BME280;17439;48.092;11.842;2023-04-19T05:09:04;95658.16;;;11.10;70.50
30682;BME280;17439;48.092;11.842;2023-04-19T05:11:34;95661.66;;;11.10;70.46
30682;BME280;17439;48.092;11.842;2023-04-19T05:14:02;95665.97;;;11.11;70.68
30682;BME280;17439;48.092;11.842;2023-04-19T05:16:31;95666.47;;;11.13;70.66
30682;BME280;17439;48.092;11.842;2023-04-19T05:18:58;95668.06;;;11.14;70.85
30682;BME280;17439;48.092;11.842;2023-04-19T05:21:28;95669.69;;;11.15;70.66
30682;BME280;17439;48.092;11.842;2023-04-19T05:23:55;95669.38;;;11.17;70.71
30682;BME280;17439;48.092;11.842;2023-04-19T05:26:22;95661.41;;;11.20;70.42
30682;BME280;17439;48.092;11.842;2023-04-19T05:28:50;95668.44;;;11.21;70.43
30682;BME280;17439;48.092;11.842;2023-04-19T05:31:27;95664.59;;;11.22;70.46
30682;BME280;17439;48.092;11.842;2023-04-19T05:34:12;95662.69;;;11.23;70.39
30682;BME280;17439;48.092;11.842;2023-04-19T05:36:39;95658.56;;;11.25;70.22
30682;BME280;17439;48.092;11.842;2023-04-19T05:39:06;95662.59;;;11.28;69.94
30682;BME280;17439;48.092;11.842;2023-04-19T05:41:32;95662.59;;;11.28;69.75
30682;BME280;17439;48.092;11.842;2023-04-19T05:43:59;95666.09;;;11.29;69.71
30682;BME280;17439;48.092;11.842;2023-04-19T05:46:26;95663.38;;;11.29;69.71
30682;BME280;17439;48.092;11.842;2023-04-19T05:48:54;95659.88;;;11.28;69.71
30682;BME280;17439;48.092;11.842;2023-04-19T05:51:39;95660.97;;;11.27;69.70
30682;BME280;17439;48.092;11.842;2023-04-19T05:54:10;95657.78;;;11.25;69.70
30682;BME280;17439;48.092;11.842;2023-04-19T05:56:39;95659.66;;;11.24;69.80
30682;BME280;17439;48.092;11.842;2023-04-19T05:59:06;95656.94;;;11.24;70.05
30682;BME280;17439;48.092;11.842;2023-04-19T06:01:32;95663.50;;;11.23;70.15
30682;BME280;17439;48.092;11.842;2023-04-19T06:03:59;95658.25;;;11.27;69.81
30682;BME280;17439;48.092;11.842;2023-04-19T06:06:26;95658.09;;;11.23;69.58
30682;BME280;17439;48.092;11.842;2023-04-19T06:08:53;95659.19;;;11.22;69.64
30682;BME280;17439;48.092;11.842;2023-04-19T06:11:20;95665.41;;;11.23;69.58
30682;BME280;17439;48.092;11.842;2023-04-19T06:13:57;95661.09;;;11.22;69.50
30682;BME280;17439;48.092;11.842;2023-04-19T06:16:24;95667.31;;;11.22;69.26
30682;BME280;17439;48.092;11.842;2023-04-19T06:18:51;95664.13;;;11.20;69.40
30682;BME280;17439;48.092;11.842;2023-04-19T06:21:17;95659.81;;;11.19;69.20
30682;BME280;17439;48.092;11.842;2023-04-19T06:23:44;95658.22;;;11.18;69.40
30682;BME280;17439;48.092;11.842;2023-04-19T06:26:11;95658.69;;;11.20;68.86
30682;BME280;17439;48.092;11.842;2023-04-19T06:28:37;95652.78;;;11.18;69.03
30682;BME280;17439;48.092;11.842;2023-04-19T06:31:04;95661.25;;;11.17;68.94
30682;BME280;17439;48.092;11.842;2023-04-19T06:33:31;95660.41;;;11.16;68.94
30682;BME280;17439;48.092;11.842;2023-04-19T06:35:57;95664.13;;;11.20;68.53
30682;BME280;17439;48.092;11.842;2023-04-19T06:38:24;95660.41;;;11.16;68.66
30682;BME280;17439;48.092;11.842;2023-04-19T06:40:51;95661.03;;;11.13;69.04
30682;BME280;17439;48.092;11.842;2023-04-19T06:43:18;95662.16;;;11.12;69.11
30682;BME280;17439;48.092;11.842;2023-04-19T06:45:44;95657.53;;;11.13;69.16
30682;BME280;17439;48.092;11.842;2023-04-19T06:48:11;95654.03;;;11.12;69.04
30682;BME280;17439;48.092;11.842;2023-04-19T06:50:38;95652.72;;;11.10;69.28
30682;BME280;17439;48.092;11.842;2023-04-19T06:53:04;95656.22;;;11.10;69.42
30682;BME280;17439;48.092;11.842;2023-04-19T06:55:31;95654.63;;;11.09;69.67
30682;BME280;17439;48.092;11.842;2023-04-19T06:57:58;95657.34;;;11.09;69.52
30682;BME280;17439;48.092;11.842;2023-04-19T07:00:24;95649.22;;;11.09;69.67
30682;BME280;17439;48.092;11.842;2023-04-19T07:02:51;95646.50;;;11.09;69.56
30682;BME280;17439;48.092;11.842;2023-04-19T07:05:18;95645.19;;;11.06;69.72
30682;BME280;17439;48.092;11.842;2023-04-19T07:07:45;95650.31;;;11.08;70.00
30682;BME280;17439;48.092;11.842;2023-04-19T07:10:11;95645.97;;;11.07;70.06
30682;BME280;17439;48.092;11.842;2023-04-19T07:12:38;95642.97;;;11.08;70.11
30682;BME280;17439;48.092;11.842;2023-04-19T07:15:05;95648.38;;;11.08;69.95
30682;BME280;17439;48.092;11.842;2023-04-19T07:17:33;95646.81;;;11.07;69.91
30682;BME280;17439;48.092;11.842;2023-04-19T07:20:01;95650.00;;;11.10;69.98
30682;BME280;17439;48.092;11.842;2023-04-19T07:22:27;95648.09;;;11.10;69.72
30682;BME280;17439;48.092;11.842;2023-04-19T07:24:54;95643.47;;;11.11;69.60
30682;BME280;17439;48.092;11.842;2023-04-19T07:27:21;95641.06;;;11.09;69.50
30682;BME280;17439;48.092;11.842;2023-04-19T07:29:47;95639.16;;;11.10;69.46
30682;BME280;17439;48.092;11.842;2023-04-19T07:32:14;95634.50;;;11.10;69.26
30682;BME280;17439;48.092;11.842;2023-04-19T07:34:41;95641.06;;;11.09;69.37
30682;BME280;17439;48.092;11.842;2023-04-19T07:37:08;95637.53;;;11.08;69.36
30682;BME280;17439;48.092;11.842;2023-04-19T07:39:35;95631.31;;;11.08;69.50
30682;BME280;17439;48.092;11.842;2023-04-19T07:42:01;95636.75;;;11.08;69.76
30682;BME280;17439;48.092;11.842;2023-04-19T07:44:28;95632.31;;;11.12;69.36
30682;BME280;17439;48.092;11.842;2023-04-19T07:46:55;95642.56;;;11.15;68.98
30682;BME280;17439;48.092;11.842;2023-04-19T07:49:22;95632.50;;;11.16;69.13
30682;BME280;17439;48.092;11.842;2023-04-19T07:51:48;95632.19;;;11.17;68.83
30682;BME280;17439;48.092;11.842;2023-04-19T07:54:15;95633.78;;;11.18;69.40
30682;BME280;17439;48.092;11.842;2023-04-19T07:56:42;95628.06;;;11.20;69.90
30682;BME280;17439;48.092;11.842;2023-04-19T07:59:09;95622.81;;;11.23;70.26
30682;BME280;17439;48.092;11.842;2023-04-19T08:01:36;95625.06;;;11.30;70.74
30682;BME280;17439;48.092;11.842;2023-04-19T08:04:03;95625.44;;;11.37;71.06
30682;BME280;17439;48.092;11.842;2023-04-19T08:06:30;95611.28;;;11.49;70.93
30682;BME280;17439;48.092;11.842;2023-04-19T08:08:57;95618.03;;;11.60;70.48
30682;BME280;17439;48.092;11.842;2023-04-19T08:11:23;95615.06;;;11.71;70.08
30682;BME280;17439;48.092;11.842;2023-04-19T08:13:50;95619.41;;;11.80;70.07
30682;BME280;17439;48.092;11.842;2023-04-19T08:16:34;95617.72;;;11.93;69.57
30682;BME280;17439;48.092;11.842;2023-04-19T08:19:04;95619.31;;;12.03;69.22
30682;BME280;17439;48.092;11.842;2023-04-19T08:21:31;95611.50;;;12.10;69.66
30682;BME280;17439;48.092;11.842;2023-04-19T08:24:07;95600.19;;;12.17;69.88
30682;BME280;17439;48.092;11.842;2023-04-19T08:26:33;95600.97;;;12.26;70.37
30682;BME280;17439;48.092;11.842;2023-04-19T08:29:00;95601.16;;;12.39;70.68
30682;BME280;17439;48.092;11.842;2023-04-19T08:31:27;95593.97;;;12.51;70.85
30682;BME280;17439;48.092;11.842;2023-04-19T08:33:53;95587.09;;;12.63;70.99
30682;BME280;17439;48.092;11.842;2023-04-19T08:36:20;95598.78;;;12.81;71.64
30682;BME280;17439;48.092;11.842;2023-04-19T08:39:01;95593.47;;;13.02;71.79
30682;BME280;17439;48.092;11.842;2023-04-19T08:41:48;95588.44;;;13.21;70.94
30682;BME280;17439;48.092;11.842;2023-04-19T08:44:31;95586.53;;;13.39;70.45
30682;BME280;17439;48.092;11.842;2023-04-19T08:47:03;95588.38;;;13.56;70.10
30682;BME280;17439;48.092;11.842;2023-04-19T08:49:33;95587.69;;;13.68;67.65
30682;BME280;17439;48.092;11.842;2023-04-19T08:52:01;95583.94;;;13.82;69.28
30682;BME280;17439;48.092;11.842;2023-04-19T08:54:31;95586.16;;;13.88;66.19
30682;BME280;17439;48.092;11.842;2023-04-19T08:57:01;95583.72;;;13.95;68.10
30682;BME280;17439;48.092;11.842;2023-04-19T08:59:28;95578.28;;;13.95;66.98
30682;BME280;17439;48.092;11.842;2023-04-19T09:01:54;95570.69;;;14.01;65.71
30682;BME280;17439;48.092;11.842;2023-04-19T09:04:21;95573.56;;;14.05;64.70
30682;BME280;17439;48.092;11.842;2023-04-19T09:07:02;95576.63;;;14.03;64.53
30682;BME280;17439;48.092;11.842;2023-04-19T09:09:29;95572.63;;;14.01;64.54
30682;BME280;17439;48.092;11.842;2023-04-19T09:12:16;95570.41;;;13.94;62.94
30682;BME280;17439;48.092;11.842;2023-04-19T09:14:44;95564.50;;;13.92;64.65
30682;BME280;17439;48.092;11.842;2023-04-19T09:17:27;95562.91;;;13.91;65.16
30682;BME280;17439;48.092;11.842;2023-04-19T09:19:54;95561.78;;;13.92;65.75
30682;BME280;17439;48.092;11.842;2023-04-19T09:22:20;95552.91;;;13.95;66.05
30682;BME280;17439;48.092;11.842;2023-04-19T09:24:47;95558.19;;;14.00;65.60
30682;BME280;17439;48.092;11.842;2023-04-19T09:27:31;95553.66;;;14.04;62.66
30682;BME280;17439;48.092;11.842;2023-04-19T09:29:59;95551.56;;;14.10;65.01
30682;BME280;17439;48.092;11.842;2023-04-19T09:32:27;95540.47;;;14.15;65.20
30682;BME280;17439;48.092;11.842;2023-04-19T09:34:56;95548.75;;;14.19;64.91
30682;BME280;17439;48.092;11.842;2023-04-19T09:37:23;95540.25;;;14.20;65.16
30682;BME280;17439;48.092;11.842;2023-04-19T09:39:58;95533.69;;;14.21;65.10
30682;BME280;17439;48.092;11.842;2023-04-19T09:42:44;95535.94;;;14.19;62.53
30682;BME280;17439;48.092;11.842;2023-04-19T09:45:44;95538.72;;;14.10;58.78
30682;BME280;17439;48.092;11.842;2023-04-19T09:48:12;95539.38;;;14.07;62.62
30682;BME280;17439;48.092;11.842;2023-04-19T09:50:52;95529.53;;;13.94;60.16
30682;BME280;17439;48.092;11.842;2023-04-19T09:53:29;95529.34;;;13.99;64.20
30682;BME280;17439;48.092;11.842;2023-04-19T09:55:56;95521.94;;;14.00;65.23
30682;BME280;17439;48.092;11.842;2023-04-19T09:58:28;95521.94;;;14.00;65.34
30682;BME280;17439;48.092;11.842;2023-04-19T10:01:14;95513.94;;;14.03;65.86
30682;BME280;17439;48.092;11.842;2023-04-19T10:03:47;95516.47;;;14.08;62.66
30682;BME280;17439;48.092;11.842;2023-04-19T10:06:16;95501.97;;;14.17;65.20
30682;BME280;17439;48.092;11.842;2023-04-19T10:08:49;95499.50;;;14.24;63.97
30682;BME280;17439;48.092;11.842;2023-04-19T10:11:16;95498.97;;;14.30;64.67
30682;BME280;17439;48.092;11.842;2023-04-19T10:13:45;95505.34;;;14.34;60.74
30682;BME280;17439;48.092;11.842;2023-04-19T10:16:14;95497.88;;;14.44;63.54
30682;BME280;17439;48.092;11.842;2023-04-19T10:18:47;95488.38;;;14.50;63.98
30682;BME280;17439;48.092;11.842;2023-04-19T10:21:15;95500.00;;;14.59;63.66
30682;BME280;17439;48.092;11.842;2023-04-19T10:23:41;95490.38;;;14.62;62.25
30682;BME280;17439;48.092;11.842;2023-04-19T10:26:08;95484.06;;;14.70;62.59
30682;BME280;17439;48.092;11.842;2023-04-19T10:28:35;95480.31;;;14.87;60.04
30682;BME280;17439;48.092;11.842;2023-04-19T10:31:03;95483.31;;;14.94;60.66
30682;BME280;17439;48.092;11.842;2023-04-19T10:33:33;95476.97;;;15.02;58.08
30682;BME280;17439;48.092;11.842;2023-04-19T10:36:01;95472.31;;;15.15;60.57
30682;BME280;17439;48.092;11.842;2023-04-19T10:38:45;95469.69;;;15.19;58.46
30682;BME280;17439;48.092;11.842;2023-04-19T10:41:16;95473.25;;;15.44;55.54
30682;BME280;17439;48.092;11.842;2023-04-19T10:43:45;95460.59;;;15.52;54.69
30682;BME280;17439;48.092;11.842;2023-04-19T10:48:58;95454.44;;;15.42;55.24
30682;BME280;17439;48.092;11.842;2023-04-19T10:51:33;95457.31;;;15.34;56.27
30682;BME280;17439;48.092;11.842;2023-04-19T10:54:01;95452.06;;;15.29;56.70
30682;BME280;17439;48.092;11.842;2023-04-19T11:04:00;95455.88;;;14.78;56.59
30682;BME280;17439;48.092;11.842;2023-04-19T11:06:27;95444.00;;;14.62;57.30
30682;BME280;17439;48.092;11.842;2023-04-19T11:08:54;95451.78;;;14.51;57.03
30682;BME280;17439;48.092;11.842;2023-04-19T11:11:20;95446.75;;;14.41;56.13
30682;BME280;17439;48.092;11.842;2023-04-19T11:13:47;95443.84;;;14.25;56.90
30682;BME280;17439;48.092;11.842;2023-04-19T11:16:14;95440.81;;;14.05;57.80
30682;BME280;17439;48.092;11.842;2023-04-19T11:18:43;95440.16;;;13.87;58.59
30682;BME280;17439;48.092;11.842;2023-04-19T11:21:13;95429.81;;;13.72;59.03
30682;BME280;17439;48.092;11.842;2023-04-19T11:23:40;95432.94;;;13.61;59.25
30682;BME280;17439;48.092;11.842;2023-04-19T11:26:10;95433.66;;;13.50;59.89
30682;BME280;17439;48.092;11.842;2023-04-19T11:28:37;95433.34;;;13.42;60.18
30682;BME280;17439;48.092;11.842;2023-04-19T11:31:05;95436.94;;;13.34;60.38
30682;BME280;17439;48.092;11.842;2023-04-19T11:33:33;95433.25;;;13.30;60.68
30682;BME280;17439;48.092;11.842;2023-04-19T11:36:00;95426.28;;;13.20;61.16
30682;BME280;17439;48.092;11.842;2023-04-19T11:38:27;95430.44;;;13.18;61.35
30682;BME280;17439;48.092;11.842;2023-04-19T11:41:01;95419.25;;;13.11;61.87
30682;BME280;17439;48.092;11.842;2023-04-19T11:43:35;95423.56;;;13.12;61.58
30682;BME280;17439;48.092;11.842;2023-04-19T11:46:06;95419.94;;;13.07;61.87
30682;BME280;17439;48.092;11.842;2023-04-19T11:48:33;95417.47;;;13.15;60.96
30682;BME280;17439;48.092;11.842;2023-04-19T11:51:01;95420.09;;;13.02;61.75
30682;BME280;17439;48.092;11.842;2023-04-19T11:53:29;95420.75;;;12.99;61.98
30682;BME280;17439;48.092;11.842;2023-04-19T12:01:08;95415.03;;;12.83;62.11
30682;BME280;17439;48.092;11.842;2023-04-19T12:03:46;95425.00;;;12.79;62.28
30682;BME280;17439;48.092;11.842;2023-04-19T12:08:44;95416.19;;;12.74;62.69
30682;BME280;17439;48.092;11.842;2023-04-19T12:11:12;95420.72;;;12.69;63.17
30682;BME280;17439;48.092;11.842;2023-04-19T12:13:39;95410.47;;;12.66;63.41
30682;BME280;17439;48.092;11.842;2023-04-19T12:16:06;95411.56;;;12.74;62.97
30682;BME280;17439;48.092;11.842;2023-04-19T12:18:50;95417.44;;;12.85;61.75
30682;BME280;17439;48.092;11.842;2023-04-19T12:21:27;95416.13;;;12.91;60.84
30682;BME280;17439;48.092;11.842;2023-04-19T12:23:58;95413.28;;;12.87;60.62
30682;BME280;17439;48.092;11.842;2023-04-19T12:26:26;95420.16;;;12.85;60.47
30682;BME280;17439;48.092;11.842;2023-04-19T12:28:57;95420.06;;;12.73;61.20
30682;BME280;17439;48.092;11.842;2023-04-19T12:31:24;95421.84;;;12.60;61.70
30682;BME280;17439;48.092;11.842;2023-04-19T12:33:51;95418.38;;;12.42;62.51
30682;BME280;17439;48.092;11.842;2023-04-19T12:36:18;95414.72;;;12.38;62.23
30682;BME280;17439;48.092;11.842;2023-04-19T12:38:45;95415.69;;;12.24;62.96
30682;BME280;17439;48.092;11.842;2023-04-19T12:41:11;95417.47;;;12.11;63.50
30682;BME280;17439;48.092;11.842;2023-04-19T12:43:38;95414.25;;;12.01;64.07
30682;BME280;17439;48.092;11.842;2023-04-19T12:46:05;95415.53;;;11.94;64.56
30682;BME280;17439;48.092;11.842;2023-04-19T12:48:31;95405.44;;;11.86;65.04
30682;BME280;17439;48.092;11.842;2023-04-19T12:50:58;95408.47;;;11.85;65.46
30682;BME280;17439;48.092;11.842;2023-04-19T12:53:25;95406.41;;;11.82;65.37
30682;BME280;17439;48.092;11.842;2023-04-19T12:55:52;95410.41;;;11.84;64.81
30682;BME280;17439;48.092;11.842;2023-04-19T12:58:19;95403.69;;;11.82;64.89
30682;BME280;17439;48.092;11.842;2023-04-19T13:00:46;95404.81;;;11.89;64.03
30682;BME280;17439;48.092;11.842;2023-04-19T13:03:12;95403.56;;;11.87;63.78
30682;BME280;17439;48.092;11.842;2023-04-19T13:05:39;95395.06;;;11.79;64.75
30682;BME280;17439;48.092;11.842;2023-04-19T13:08:06;95401.94;;;11.77;65.17
30682;BME280;17439;48.092;11.842;2023-04-19T13:10:32;95401.13;;;11.76;65.65
30682;BME280;17439;48.092;11.842;2023-04-19T13:12:59;95403.06;;;11.76;65.96
30682;BME280;17439;48.092;11.842;2023-04-19T13:15:26;95395.84;;;11.80;65.62
30682;BME280;17439;48.092;11.842;2023-04-19T13:17:53;95396.81;;;11.84;65.54
30682;BME280;17439;48.092;11.842;2023-04-19T13:20:19;95387.25;;;11.87;65.64